Time;durP1;ratioP1;P1;durP2;ratioP2;P2;SDS_P1;SDS_P2;PMS_P1;PMS_P2;Temp;Humidity;BMP_temperature;BMP_pressure;BME280_temperature;BME280_humidity;BME280_pressure;Samples;Min_cycle;Max_cycle;Signal;HPM_P1;HPM_P2
2021/10/07 00:01:59;;;;;;;1.93;1.50;;;23.30;54.20;;;;;;6240225;23;20147;-84
2021/10/07 00:04:26;;;;;;;1.33;0.90;;;23.30;54.10;;;;;;6234627;23;20377;-85
2021/10/07 00:06:53;;;;;;;3.07;1.10;;;23.20;54.10;;;;;;6240024;23;20385;-84
2021/10/07 00:09:24;;;;;;;1.77;1.00;;;23.20;54.10;;;;;;6239626;23;20412;-84
2021/10/07 00:11:50;;;;;;;1.77;1.13;;;23.30;54.20;;;;;;6238650;23;20439;-84
2021/10/07 00:14:16;;;;;;;1.80;0.80;;;23.20;54.10;;;;;;6238722;23;20393;-85
2021/10/07 00:16:42;;;;;;;1.83;1.20;;;23.20;54.10;;;;;;6239507;23;20416;-84
2021/10/07 00:19:08;;;;;;;1.33;0.90;;;23.20;54.10;;;;;;6266393;23;20362;-84
2021/10/07 00:24:58;;;;;;;2.00;0.97;;;23.30;54.10;;;;;;6266305;23;20142;-84
2021/10/07 00:27:23;;;;;;;1.10;1.00;;;23.20;54.10;;;;;;6265554;23;20366;-85
2021/10/07 00:29:53;;;;;;;2.07;1.13;;;23.20;54.10;;;;;;6238761;23;20380;-84
2021/10/07 00:32:45;;;;;;;1.77;1.30;;;23.20;54.20;;;;;;6239006;23;20189;-84
2021/10/07 00:36:01;;;;;;;2.30;1.10;;;23.20;54.20;;;;;;6144254;23;20887;-84
2021/10/07 00:41:14;;;;;;;1.97;0.90;;;23.20;54.20;;;;;;6266804;23;20672;-84
2021/10/07 00:43:40;;;;;;;2.20;1.10;;;23.20;54.20;;;;;;6240666;23;20381;-85
2021/10/07 00:46:09;;;;;;;2.23;1.00;;;23.20;54.20;;;;;;6267052;23;20173;-84
2021/10/07 00:48:34;;;;;;;1.97;0.97;;;23.20;54.20;;;;;;6266683;23;20147;-84
2021/10/07 00:51:02;;;;;;;1.47;0.70;;;23.20;54.20;;;;;;6238829;23;20407;-84
2021/10/07 00:53:28;;;;;;;1.60;0.93;;;23.20;54.20;;;;;;6265242;23;20151;-84
2021/10/07 00:55:54;;;;;;;1.60;1.00;;;23.20;54.20;;;;;;6265001;23;20899;-85
2021/10/07 00:58:20;;;;;;;1.43;0.90;;;23.20;54.20;;;;;;6239397;23;20150;-85
2021/10/07 01:00:46;;;;;;;2.13;1.10;;;23.20;54.20;;;;;;6239781;23;20196;-84
2021/10/07 01:03:13;;;;;;;2.70;1.00;;;23.20;54.20;;;;;;6240086;23;20150;-85
2021/10/07 01:05:39;;;;;;;1.40;0.93;;;23.20;54.20;;;;;;6238985;23;20377;-85
2021/10/07 01:08:06;;;;;;;1.30;1.00;;;23.20;54.20;;;;;;6238682;23;20405;-85
2021/10/07 01:10:32;;;;;;;2.17;0.97;;;23.20;54.20;;;;;;6238599;23;20649;-84
2021/10/07 01:12:58;;;;;;;1.70;0.93;;;23.20;54.20;;;;;;6238718;23;20373;-84
2021/10/07 01:15:23;;;;;;;1.37;0.90;;;23.20;54.20;;;;;;6263776;23;20178;-84
2021/10/07 01:17:49;;;;;;;2.30;0.93;;;23.20;54.20;;;;;;6237887;23;20150;-84
2021/10/07 01:20:17;;;;;;;2.27;1.03;;;23.20;54.20;;;;;;6235703;23;20197;-84
2021/10/07 01:22:43;;;;;;;1.40;1.20;;;23.20;54.20;;;;;;6261996;23;20149;-84
2021/10/07 01:25:08;;;;;;;1.60;0.90;;;23.20;54.20;;;;;;6262619;23;20397;-84
2021/10/07 01:27:37;;;;;;;1.40;0.70;;;23.20;54.20;;;;;;6235189;23;20177;-84
2021/10/07 01:30:12;;;;;;;1.20;0.87;;;23.20;54.20;;;;;;6235041;23;20155;-84
2021/10/07 01:32:40;;;;;;;1.40;1.10;;;23.20;54.20;;;;;;6262269;23;20383;-84
2021/10/07 01:35:08;;;;;;;1.20;0.90;;;23.20;54.20;;;;;;6235665;23;20421;-84
2021/10/07 01:37:34;;;;;;;1.40;0.90;;;23.20;54.20;;;;;;6261638;23;20362;-84
2021/10/07 01:40:01;;;;;;;1.30;0.90;;;23.20;54.20;;;;;;6235649;23;20377;-85
2021/10/07 01:42:26;;;;;;;1.30;0.90;;;23.20;54.20;;;;;;6235940;23;20169;-84
2021/10/07 01:44:53;;;;;;;1.10;0.73;;;23.20;54.20;;;;;;6234901;23;20384;-84
2021/10/07 01:47:19;;;;;;;1.60;1.10;;;23.20;54.20;;;;;;6234439;23;20177;-84
2021/10/07 01:49:45;;;;;;;1.73;1.13;;;23.20;54.20;;;;;;6235418;23;20381;-84
2021/10/07 01:52:11;;;;;;;1.30;0.90;;;23.20;54.20;;;;;;6261176;23;20150;-84
2021/10/07 01:54:37;;;;;;;1.50;0.90;;;23.20;54.30;;;;;;6235291;23;20154;-84
2021/10/07 01:57:03;;;;;;;1.40;0.90;;;23.20;54.30;;;;;;6235172;23;20397;-84
2021/10/07 01:59:29;;;;;;;1.80;1.10;;;23.20;54.20;;;;;;6262100;23;20372;-84
2021/10/07 02:01:55;;;;;;;1.87;1.03;;;23.20;54.30;;;;;;6236092;23;20444;-84
2021/10/07 02:04:20;;;;;;;1.00;0.80;;;23.20;54.50;;;;;;6235876;23;20150;-84
2021/10/07 02:06:46;;;;;;;1.80;0.90;;;23.20;54.20;;;;;;6235247;23;20197;-84
2021/10/07 02:09:12;;;;;;;1.07;0.70;;;23.20;54.20;;;;;;6235911;23;20158;-84
2021/10/07 02:11:38;;;;;;;1.50;0.90;;;23.20;54.30;;;;;;6236257;23;20158;-84
2021/10/07 02:14:04;;;;;;;3.07;1.90;;;23.20;54.30;;;;;;6263372;23;20153;-84
2021/10/07 02:16:33;;;;;;;1.30;0.80;;;23.20;54.30;;;;;;6263576;23;20193;-84
2021/10/07 02:18:59;;;;;;;1.50;1.17;;;23.20;54.30;;;;;;6236813;23;20377;-84
2021/10/07 02:21:25;;;;;;;1.30;0.97;;;23.20;54.30;;;;;;6237710;23;20374;-84
2021/10/07 02:23:51;;;;;;;1.20;0.90;;;23.20;54.30;;;;;;6263395;23;20143;-84
2021/10/07 02:26:17;;;;;;;1.30;0.90;;;23.20;54.30;;;;;;6236828;23;20159;-84
2021/10/07 02:28:42;;;;;;;1.70;1.03;;;23.20;54.30;;;;;;6237633;23;20162;-84
2021/10/07 02:31:08;;;;;;;1.23;0.87;;;23.20;54.30;;;;;;6263565;23;20377;-84
2021/10/07 02:33:34;;;;;;;1.20;0.90;;;23.20;54.30;;;;;;6263784;23;20582;-84
2021/10/07 02:35:59;;;;;;;1.80;0.83;;;23.20;54.30;;;;;;6264077;23;20175;-84
2021/10/07 02:38:25;;;;;;;1.30;0.90;;;23.20;54.30;;;;;;6264416;23;20150;-84
2021/10/07 02:40:51;;;;;;;2.03;0.93;;;23.20;54.30;;;;;;6236967;23;20204;-84
2021/10/07 02:43:17;;;;;;;1.10;0.80;;;23.20;54.30;;;;;;6236695;23;20222;-84
2021/10/07 02:45:43;;;;;;;1.60;0.90;;;23.20;54.30;;;;;;6263390;23;20146;-84
2021/10/07 02:48:09;;;;;;;1.30;1.00;;;23.20;54.30;;;;;;6237444;23;20253;-84
2021/10/07 02:50:35;;;;;;;1.43;0.90;;;23.20;54.40;;;;;;6236898;23;20389;-84
2021/10/07 02:53:00;;;;;;;2.27;0.80;;;23.20;54.30;;;;;;6237103;23;20218;-84
2021/10/07 02:55:26;;;;;;;1.10;0.80;;;23.20;54.30;;;;;;6236524;23;20418;-84
2021/10/07 02:57:52;;;;;;;1.67;0.87;;;23.10;54.30;;;;;;6236479;23;20150;-84
2021/10/07 03:00:19;;;;;;;2.57;1.00;;;23.20;54.30;;;;;;6262700;23;20147;-84
2021/10/07 03:02:45;;;;;;;1.20;0.83;;;23.20;54.40;;;;;;6236657;23;20616;-84
2021/10/07 03:05:13;;;;;;;1.10;0.80;;;23.20;54.30;;;;;;6238492;23;20471;-84
2021/10/07 03:07:40;;;;;;;1.30;0.90;;;23.20;54.30;;;;;;6264711;23;20374;-84
2021/10/07 03:10:07;;;;;;;1.80;0.97;;;23.20;54.30;;;;;;6236243;23;20388;-85
2021/10/07 03:12:33;;;;;;;1.30;0.90;;;23.20;54.30;;;;;;6236724;23;20381;-84
2021/10/07 03:14:59;;;;;;;1.30;0.90;;;23.20;54.30;;;;;;6236308;23;20411;-85
2021/10/07 03:17:24;;;;;;;1.00;0.70;;;23.20;54.40;;;;;;6263608;23;20153;-84
2021/10/07 03:23:12;;;;;;;1.93;1.40;;;23.20;54.30;;;;;;6264949;23;20191;-84
2021/10/07 03:25:38;;;;;;;1.47;0.77;;;23.10;54.40;;;;;;6239245;23;20377;-84
2021/10/07 03:28:04;;;;;;;1.10;0.80;;;23.10;54.40;;;;;;6265547;23;20150;-84
2021/10/07 03:30:29;;;;;;;1.17;1.00;;;23.10;54.30;;;;;;6239493;23;20590;-85
2021/10/07 03:32:55;;;;;;;1.70;1.00;;;23.10;54.40;;;;;;6264861;23;20146;-84
2021/10/07 03:35:21;;;;;;;2.80;0.70;;;23.10;54.40;;;;;;6238592;23;20171;-84
2021/10/07 03:37:47;;;;;;;1.00;0.73;;;23.10;54.40;;;;;;6238493;23;20210;-85
2021/10/07 03:40:12;;;;;;;0.90;0.70;;;23.10;54.40;;;;;;6237328;23;20159;-85
2021/10/07 03:42:40;;;;;;;1.50;1.00;;;23.10;54.40;;;;;;6236798;23;20150;-85
2021/10/07 03:45:07;;;;;;;1.27;0.80;;;23.10;54.40;;;;;;6263632;23;20150;-86
2021/10/07 03:47:36;;;;;;;1.17;1.00;;;23.10;54.40;;;;;;6237087;23;20388;-86
2021/10/07 03:50:03;;;;;;;1.30;0.90;;;23.10;54.40;;;;;;6236392;23;20381;-86
2021/10/07 03:52:29;;;;;;;1.63;0.93;;;23.10;54.40;;;;;;6262693;23;20377;-86
2021/10/07 03:54:55;;;;;;;1.43;0.80;;;23.10;54.40;;;;;;6236555;23;20539;-86
2021/10/07 03:57:23;;;;;;;1.00;0.73;;;23.10;54.40;;;;;;6236650;23;20169;-86
2021/10/07 03:59:53;;;;;;;1.80;1.00;;;23.10;54.40;;;;;;6262667;23;20423;-85
2021/10/07 04:02:19;;;;;;;1.10;0.80;;;23.10;54.40;;;;;;6236161;23;20373;-86
2021/10/07 04:04:45;;;;;;;1.10;0.90;;;23.10;54.40;;;;;;6235558;23;20452;-86
2021/10/07 04:10:36;;;;;;;1.20;0.90;;;23.10;54.40;;;;;;6262322;23;20400;-86
2021/10/07 04:13:04;;;;;;;1.20;0.80;;;23.10;54.50;;;;;;6236227;23;20401;-85
2021/10/07 04:15:33;;;;;;;1.83;0.80;;;23.00;54.50;;;;;;6235315;23;20465;-85
2021/10/07 04:17:59;;;;;;;2.60;1.43;;;23.10;54.60;;;;;;6237100;23;20394;-86
2021/10/07 04:20:28;;;;;;;1.33;0.80;;;23.10;54.50;;;;;;6265157;23;20377;-85
2021/10/07 04:23:01;;;;;;;1.10;0.90;;;23.10;54.50;;;;;;6237833;23;20423;-85
2021/10/07 04:25:27;;;;;;;1.03;0.80;;;23.10;54.50;;;;;;6236752;23;20381;-85
2021/10/07 04:27:56;;;;;;;2.27;0.80;;;23.00;54.50;;;;;;6263775;23;20829;-85
2021/10/07 04:30:23;;;;;;;1.10;0.90;;;23.10;54.50;;;;;;6263447;23;20147;-85
2021/10/07 04:32:55;;;;;;;1.10;0.70;;;23.10;54.50;;;;;;6262410;23;20378;-82
2021/10/07 04:35:23;;;;;;;1.33;0.80;;;23.10;54.50;;;;;;6237836;23;20506;-84
2021/10/07 04:37:52;;;;;;;2.00;1.17;;;23.10;54.50;;;;;;6238522;23;20840;-84
2021/10/07 04:40:38;;;;;;;1.50;0.97;;;23.10;54.50;;;;;;6238601;23;20397;-84
2021/10/07 04:43:04;;;;;;;1.40;1.20;;;23.10;54.50;;;;;;6264479;23;20388;-84
2021/10/07 04:45:33;;;;;;;1.10;0.80;;;23.10;54.50;;;;;;6238985;23;20389;-84
2021/10/07 04:47:59;;;;;;;1.20;0.70;;;23.10;54.50;;;;;;6237420;23;20385;-84
2021/10/07 04:50:32;;;;;;;1.10;0.80;;;23.10;54.40;;;;;;6237895;23;20377;-85
2021/10/07 04:52:59;;;;;;;1.00;0.90;;;23.10;54.40;;;;;;6265965;23;20685;-84
2021/10/07 04:55:25;;;;;;;1.40;0.90;;;23.10;54.40;;;;;;6238458;23;20425;-84
2021/10/07 04:57:53;;;;;;;1.27;0.90;;;23.10;54.40;;;;;;6265425;23;20378;-83
2021/10/07 05:00:19;;;;;;;1.30;1.00;;;23.10;54.40;;;;;;6265821;23;20432;-84
2021/10/07 05:09:32;;;;;;;;;;;;;;;;;;;;;
2021/10/07 05:11:58;;;;;;;1.47;1.03;;;23.10;54.50;;;;;;6267328;23;20349;-84
2021/10/07 05:14:32;;;;;;;1.40;1.00;;;23.10;54.50;;;;;;6268132;23;20373;-83
2021/10/07 05:16:58;;;;;;;1.10;0.80;;;23.10;54.40;;;;;;6266242;23;20431;-84
2021/10/07 05:19:24;;;;;;;1.67;1.00;;;23.10;54.40;;;;;;6239625;23;20405;-84
2021/10/07 05:25:30;;;;;;;0.90;0.70;;;23.10;54.40;;;;;;6200977;23;20446;-84
2021/10/07 05:27:56;;;;;;;3.33;1.53;;;23.10;54.40;;;;;;6171396;23;20710;-84
2021/10/07 05:30:34;;;;;;;;;;;;;;;;;;;;;
2021/10/07 05:33:00;;;;;;;1.40;0.80;;;23.10;54.40;;;;;;6199645;23;20386;-84
2021/10/07 05:35:29;;;;;;;2.37;1.10;;;23.10;54.40;;;;;;6175022;23;20419;-84
2021/10/07 05:37:59;;;;;;;1.03;0.80;;;23.20;55.00;;;;;;6174707;23;20379;-84
2021/10/07 05:40:39;;;;;;;1.10;0.80;;;23.20;54.50;;;;;;6200844;23;20363;-84
2021/10/07 05:43:12;;;;;;;2.00;0.90;;;23.20;54.50;;;;;;6175238;23;20390;-84
2021/10/07 05:45:38;;;;;;;1.10;0.83;;;23.20;54.50;;;;;;6175008;23;20372;-84
2021/10/07 05:48:08;;;;;;;1.10;0.80;;;23.20;54.50;;;;;;6175380;23;20379;-84
2021/10/07 05:50:34;;;;;;;1.87;1.10;;;23.20;54.50;;;;;;6175078;23;20411;-83
2021/10/07 05:53:00;;;;;;;1.40;1.00;;;23.20;54.40;;;;;;6174869;23;20383;-84
2021/10/07 05:55:28;;;;;;;1.43;0.90;;;23.20;54.40;;;;;;6174809;23;20454;-84
2021/10/07 05:57:57;;;;;;;1.40;0.83;;;23.20;54.40;;;;;;6175464;23;20462;-84
2021/10/07 06:00:29;;;;;;;1.40;0.90;;;23.20;54.40;;;;;;6174603;23;20390;-84
2021/10/07 06:02:55;;;;;;;1.63;0.97;;;23.20;54.40;;;;;;6263009;23;20357;-84
2021/10/07 06:05:28;;;;;;;1.37;0.80;;;23.20;54.40;;;;;;6262687;23;20373;-84
2021/10/07 06:07:54;;;;;;;4.00;2.17;;;23.20;54.40;;;;;;6236368;23;20376;-84
2021/10/07 06:10:26;;;;;;;1.70;1.00;;;23.20;54.40;;;;;;6236654;23;20481;-84
2021/10/07 06:16:40;;;;;;;1.40;1.13;;;23.20;54.40;;;;;;6111557;23;3081433;-84
2021/10/07 06:19:15;;;;;;;1.00;0.80;;;23.20;54.40;;;;;;6188181;23;20158;-84
2021/10/07 06:21:48;;;;;;;1.00;0.80;;;23.20;54.50;;;;;;6236801;23;20365;-84
2021/10/07 06:24:20;;;;;;;1.20;0.80;;;23.20;54.50;;;;;;6237677;23;20380;-84
2021/10/07 06:26:50;;;;;;;1.10;0.97;;;23.20;54.50;;;;;;6236677;23;20401;-83
2021/10/07 06:29:27;;;;;;;2.23;1.20;;;23.20;54.40;;;;;;6263641;23;20373;-82
2021/10/07 06:32:01;;;;;;;1.73;1.20;;;23.20;54.40;;;;;;6237008;23;20369;-83
2021/10/07 06:34:34;;;;;;;1.60;1.20;;;23.20;54.40;;;;;;6236782;23;20382;-82
2021/10/07 06:37:00;;;;;;;1.33;1.13;;;23.20;54.30;;;;;;6236530;23;20420;-82
2021/10/07 06:39:27;;;;;;;1.70;1.20;;;23.20;54.30;;;;;;6236508;23;20400;-82
2021/10/07 06:41:53;;;;;;;3.20;1.70;;;23.20;54.30;;;;;;6236102;23;20381;-82
2021/10/07 06:44:36;;;;;;;1.97;1.40;;;23.10;54.20;;;;;;6237325;23;20449;-83
2021/10/07 06:47:07;;;;;;;2.67;1.40;;;23.10;54.70;;;;;;6263956;23;20419;-83
2021/10/07 06:49:40;;;;;;;2.73;1.30;;;23.20;54.20;;;;;;6262786;23;20385;-83
2021/10/07 06:52:08;;;;;;;1.77;1.20;;;23.20;54.30;;;;;;6237711;23;20944;-83
2021/10/07 06:54:43;;;;;;;1.40;1.10;;;23.20;54.30;;;;;;6238826;23;20381;-83
2021/10/07 06:57:08;;;;;;;1.87;1.30;;;23.20;54.20;;;;;;6239003;23;20416;-83
2021/10/07 07:00:12;;;;;;;;;;;;;;;;;;;;;
2021/10/07 07:02:42;;;;;;;2.77;1.10;;;23.20;54.20;;;;;;6261043;23;20165;-82
2021/10/07 07:05:14;;;;;;;1.63;0.97;;;23.20;54.20;;;;;;6270534;23;20400;-82
2021/10/07 07:14:48;;;;;;;1.07;0.90;;;23.20;54.20;;;;;;6119292;23;20366;-84
2021/10/07 07:17:16;;;;;;;1.50;1.20;;;23.20;54.30;;;;;;6099775;23;20397;-83
2021/10/07 07:19:45;;;;;;;1.47;1.17;;;23.20;54.30;;;;;;6094805;23;20389;-83
2021/10/07 07:22:23;;;;;;;1.97;1.13;;;23.20;54.30;;;;;;6118951;23;20398;-84
2021/10/07 07:24:57;;;;;;;1.30;0.90;;;23.20;54.30;;;;;;6092757;23;20424;-83
2021/10/07 07:27:47;;;;;;;1.63;1.10;;;23.20;54.30;;;;;;6120288;23;21462;-83
2021/10/07 07:30:17;;;;;;;1.53;1.40;;;23.20;54.30;;;;;;6096118;23;20384;-84
2021/10/07 07:32:43;;;;;;;1.33;1.23;;;23.20;54.80;;;;;;6095788;23;20461;-83
2021/10/07 07:35:16;;;;;;;2.63;1.40;;;23.20;54.30;;;;;;6095496;23;20444;-83
2021/10/07 07:37:48;;;;;;;1.43;1.20;;;23.20;54.20;;;;;;6118932;23;20412;-83
2021/10/07 07:40:23;;;;;;;2.37;1.40;;;23.20;54.20;;;;;;6094271;23;20753;-83
2021/10/07 07:43:01;;;;;;;2.03;1.20;;;23.20;54.30;;;;;;6118079;23;20377;-83
2021/10/07 07:45:39;;;;;;;1.20;1.00;;;23.20;54.20;;;;;;6094322;23;20396;-83
2021/10/07 07:48:31;;;;;;;1.20;0.90;;;23.20;54.20;;;;;;6161439;23;20388;-83
2021/10/07 07:51:18;;;;;;;1.70;1.33;;;23.20;54.20;;;;;;6242614;23;20365;-84
2021/10/07 07:54:03;;;;;;;1.17;1.00;;;23.20;54.20;;;;;;6243026;23;20400;-83
2021/10/07 07:56:41;;;;;;;2.50;1.03;;;23.20;54.20;;;;;;6243432;23;20413;-83
2021/10/07 07:59:09;;;;;;;1.53;1.00;;;23.20;54.30;;;;;;6243246;23;20469;-83
2021/10/07 08:01:55;;;;;;;;;;;;;;;;;;;;;
2021/10/07 08:04:29;;;;;;;1.10;0.90;;;23.20;54.20;;;;;;6268356;23;20350;-83
2021/10/07 08:07:01;;;;;;;1.10;0.93;;;23.20;54.20;;;;;;6238541;23;20399;-83
2021/10/07 08:09:38;;;;;;;1.10;0.90;;;23.30;54.90;;;;;;6238589;23;20453;-83
2021/10/07 08:12:35;;;;;;;;;;;;;;;;;;;;;
2021/10/07 08:15:11;;;;;;;1.40;1.10;;;23.30;54.40;;;;;;6264711;23;20713;-82
2021/10/07 08:17:42;;;;;;;1.93;1.67;;;23.30;54.30;;;;;;6238270;23;20381;-83
2021/10/07 08:20:23;;;;;;;1.57;1.20;;;23.30;54.30;;;;;;6264306;23;20346;-83
2021/10/07 08:22:57;;;;;;;1.27;0.80;;;23.30;54.30;;;;;;6237772;23;20361;-83
2021/10/07 08:25:25;;;;;;;4.43;1.40;;;23.30;54.30;;;;;;6264592;23;20410;-83
2021/10/07 08:27:59;;;;;;;1.30;1.10;;;23.30;54.30;;;;;;6238213;23;20383;-83
2021/10/07 08:30:46;;;;;;;1.90;0.90;;;23.30;54.30;;;;;;6237706;23;20436;-83
2021/10/07 08:33:12;;;;;;;2.57;1.07;;;23.30;54.30;;;;;;6238305;23;20434;-82
2021/10/07 08:39:12;;;;;;;1.30;1.10;;;23.30;54.20;;;;;;6263997;23;20364;-82
2021/10/07 08:41:52;;;;;;;;;;;;;;;;;;;;;
2021/10/07 08:44:30;;;;;;;1.20;0.97;;;23.30;54.30;;;;;;6263463;23;20361;-83
2021/10/07 08:47:01;;;;;;;1.33;1.00;;;23.30;54.30;;;;;;6236839;23;20380;-82
2021/10/07 08:53:32;;;;;;;1.43;1.03;;;23.30;54.30;;;;;;6025237;23;20395;-82
2021/10/07 08:56:06;;;;;;;1.57;1.07;;;23.30;54.40;;;;;;6024281;23;20465;-83
2021/10/07 08:58:47;;;;;;;1.20;1.00;;;23.30;54.30;;;;;;6001077;23;20388;-83
2021/10/07 09:02:18;;;;;;;1.50;1.00;;;23.30;54.40;;;;;;6002283;23;20395;-83
2021/10/07 09:15:33;;;;;;;1.77;1.00;;;23.30;54.40;;;;;;6024746;23;20453;-85
2021/10/07 09:18:31;;;;;;;;;;;;;;;;;;;;;
2021/10/07 09:21:18;;;;;;;2.07;1.40;;;23.30;54.40;;;;;;6025660;23;20411;-84
2021/10/07 09:24:32;;;;;;;;;;;;;;;;;;;;;
2021/10/07 09:27:18;;;;;;;2.97;2.37;;;23.30;54.40;;;;;;6068960;23;20406;-82
2021/10/07 09:30:40;;;;;;;3.67;3.00;;;23.30;54.40;;;;;;6173322;23;20390;-83
2021/10/07 09:33:24;;;;;;;3.87;3.10;;;23.30;54.40;;;;;;6086777;23;20394;-84
2021/10/07 09:36:26;;;;;;;;;;;;;;;;;;;;;
2021/10/07 09:40:03;;;;;;;3.93;3.30;;;23.30;54.40;;;;;;6171891;23;20385;-83
2021/10/07 09:49:35;;;;;;;5.77;3.03;;;23.30;54.40;;;;;;6149855;23;21235;-83
2021/10/07 09:52:47;;;;;;;;;;;;;;;;;;;;;
2021/10/07 09:55:38;;;;;;;3.20;2.50;;;23.30;54.40;;;;;;6182432;23;20423;-83
2021/10/07 09:58:41;;;;;;;5.53;3.17;;;23.30;54.40;;;;;;6131540;23;20375;-83
2021/10/07 10:04:33;;;;;;;3.37;2.67;;;23.30;54.40;;;;;;6163316;23;20448;-84
2021/10/07 10:07:03;;;;;;;4.03;2.57;;;23.40;54.40;;;;;;6181350;23;20404;-84
2021/10/07 10:12:48;;;;;;;3.40;2.23;;;23.40;54.40;;;;;;6177813;23;20387;-85
2021/10/07 10:15:55;;;;;;;2.53;1.90;;;23.40;54.30;;;;;;6156887;23;20500;-84
2021/10/07 10:18:24;;;;;;;3.37;2.20;;;23.40;54.30;;;;;;6177527;23;20387;-84
2021/10/07 10:21:07;;;;;;;;;;;;;;;;;;;;;
2021/10/07 10:23:51;;;;;;;4.53;2.20;;;23.40;54.30;;;;;;6208770;23;20371;-85
2021/10/07 10:46:12;;;;;;;4.80;2.67;;;23.40;54.20;;;;;;6094433;23;20374;-82
2021/10/07 10:49:14;;;;;;;5.40;3.20;;;23.40;54.30;;;;;;6094711;23;20395;-82
2021/10/07 10:51:51;;;;;;;7.13;3.60;;;23.40;54.30;;;;;;6013801;23;20380;-82
2021/10/07 10:54:30;;;;;;;6.87;4.40;;;23.40;54.40;;;;;;6013694;23;20396;-82
2021/10/07 10:57:06;;;;;;;9.90;4.47;;;23.40;54.30;;;;;;6035224;23;20428;-83
2021/10/07 10:59:46;;;;;;;8.90;3.40;;;23.40;54.30;;;;;;6012534;23;20397;-83
2021/10/07 11:02:36;;;;;;;12.07;4.33;;;23.50;54.40;;;;;;6035572;23;20388;-82
2021/10/07 11:08:52;;;;;;;6.13;4.20;;;23.50;54.40;;;;;;6034523;23;20363;-84
2021/10/07 11:11:46;;;;;;;7.77;4.23;;;23.40;54.30;;;;;;6034274;23;20432;-82
2021/10/07 11:14:23;;;;;;;9.00;3.70;;;23.40;54.40;;;;;;6179551;23;20388;-82
2021/10/07 11:16:59;;;;;;;9.70;3.70;;;23.40;54.40;;;;;;6171815;23;20443;-84
2021/10/07 11:19:54;;;;;;;8.37;4.40;;;23.40;54.40;;;;;;6172996;23;20432;-84
2021/10/07 11:23:08;;;;;;;;;;;;;;;;;;;;;
2021/10/07 11:25:39;;;;;;;6.30;3.47;;;23.40;54.40;;;;;;6168273;23;20385;-83
2021/10/07 11:28:24;;;;;;;;;;;;;;;;;;;;;
2021/10/07 11:31:01;;;;;;;6.60;3.67;;;23.40;54.40;;;;;;6235322;23;20385;-83
2021/10/07 11:33:28;;;;;;;9.10;4.00;;;23.40;54.40;;;;;;6235081;23;20405;-83
2021/10/07 11:36:38;;;;;;;7.13;3.67;;;23.40;54.40;;;;;;6234071;23;20446;-83
2021/10/07 11:39:10;;;;;;;9.57;3.37;;;23.50;54.40;;;;;;6201500;23;20400;-83
2021/10/07 11:41:42;;;;;;;4.97;3.13;;;23.40;54.40;;;;;;6236387;23;20433;-83
2021/10/07 11:44:17;;;;;;;4.33;3.37;;;23.50;54.40;;;;;;6236336;23;20389;-83
2021/10/07 11:47:08;;;;;;;4.57;2.73;;;23.40;54.30;;;;;;6210192;23;20485;-83
2021/10/07 11:56:25;;;;;;;3.63;2.97;;;23.40;54.30;;;;;;6172166;23;20427;-83
2021/10/07 11:59:07;;;;;;;7.03;2.70;;;23.40;54.40;;;;;;6148054;23;20384;-83
2021/10/07 12:05:32;;;;;;;3.30;2.10;;;23.40;54.90;;;;;;5979401;24;20413;-84
2021/10/07 12:08:12;;;;;;;2.97;2.23;;;23.40;54.40;;;;;;6000237;24;20886;-83
2021/10/07 12:10:59;;;;;;;4.50;2.30;;;23.40;54.40;;;;;;5959506;24;20397;-83
2021/10/07 12:13:37;;;;;;;3.50;2.20;;;23.40;54.30;;;;;;6000973;24;20389;-83
2021/10/07 12:16:14;;;;;;;3.10;2.27;;;23.40;54.30;;;;;;5976939;24;20440;-83
2021/10/07 12:18:48;;;;;;;2.70;2.07;;;23.40;54.30;;;;;;6004547;23;20399;-83
2021/10/07 12:21:19;;;;;;;3.40;1.67;;;23.40;54.30;;;;;;6000756;24;20385;-83
2021/10/07 12:24:00;;;;;;;5.50;2.50;;;23.40;54.20;;;;;;6000789;24;20465;-83
2021/10/07 12:26:48;;;;;;;2.70;2.03;;;23.40;54.20;;;;;;5979315;24;20441;-83
2021/10/07 12:30:02;;;;;;;2.57;1.80;;;23.40;54.20;;;;;;6015322;23;20405;-82
2021/10/07 12:33:08;;;;;;;4.00;1.50;;;23.40;54.20;;;;;;6072176;23;20383;-82
2021/10/07 12:35:34;;;;;;;2.83;2.00;;;23.40;54.20;;;;;;6066378;23;20461;-83
2021/10/07 12:38:02;;;;;;;2.13;1.90;;;23.40;54.20;;;;;;6060329;23;20422;-84
2021/10/07 12:40:37;;;;;;;3.03;2.03;;;23.40;54.20;;;;;;6098779;23;20219;-83
2021/10/07 12:49:45;;;;;;;2.70;1.87;;;23.40;54.20;;;;;;6202177;23;20378;-83
2021/10/07 12:52:43;;;;;;;2.00;1.60;;;23.30;54.10;;;;;;6202228;23;20358;-84
2021/10/07 12:55:16;;;;;;;1.87;1.43;;;23.40;54.20;;;;;;6147340;23;20470;-85
2021/10/07 12:57:49;;;;;;;1.90;1.60;;;23.40;54.20;;;;;;6147843;23;20424;-84
2021/10/07 13:00:37;;;;;;;1.70;1.33;;;23.40;54.20;;;;;;6147413;23;20415;-84
2021/10/07 13:03:17;;;;;;;3.00;1.50;;;23.40;54.10;;;;;;6124676;23;20373;-83
2021/10/07 13:05:44;;;;;;;2.57;1.50;;;23.40;54.10;;;;;;6137839;23;20481;-83
2021/10/07 13:08:25;;;;;;;1.37;1.27;;;23.40;54.10;;;;;;6141644;23;20364;-83
2021/10/07 13:10:53;;;;;;;2.50;1.73;;;23.40;54.10;;;;;;6141638;23;20415;-82
2021/10/07 13:13:30;;;;;;;1.90;1.33;;;23.40;54.10;;;;;;6141831;23;20404;-82
2021/10/07 13:22:54;;;;;;;1.60;1.33;;;23.40;53.90;;;;;;6115506;23;20416;-84
2021/10/07 13:39:03;;;;;;;1.53;1.23;;;23.40;53.80;;;;;;6029906;23;20461;-81
2021/10/07 13:41:58;;;;;;;1.97;1.40;;;23.30;53.90;;;;;;6029048;23;20396;-83
2021/10/07 13:44:24;;;;;;;4.27;1.30;;;23.40;53.90;;;;;;6028990;23;20444;-82
2021/10/07 13:46:57;;;;;;;1.90;1.20;;;23.30;53.80;;;;;;6029054;23;20427;-82
2021/10/07 13:49:24;;;;;;;1.67;1.13;;;23.40;53.90;;;;;;6029645;23;20388;-82
2021/10/07 13:51:56;;;;;;;1.60;1.10;;;23.40;53.80;;;;;;6028587;23;20404;-82
2021/10/07 13:54:40;;;;;;;;;;;;;;;;;;;;;
2021/10/07 13:57:10;;;;;;;1.43;1.10;;;23.40;53.80;;;;;;6004714;23;20424;-84
2021/10/07 13:59:40;;;;;;;2.13;1.60;;;23.40;53.80;;;;;;6079339;23;20394;-85
2021/10/07 14:05:45;;;;;;;2.93;1.20;;;23.40;53.70;;;;;;6082281;23;20813;-85
2021/10/07 14:14:51;;;;;;;1.80;1.07;;;23.40;53.70;;;;;;6234349;23;20381;-83
2021/10/07 14:17:33;;;;;;;3.70;1.20;;;23.40;53.60;;;;;;6158009;23;20479;-83
2021/10/07 14:20:04;;;;;;;2.90;1.27;;;23.40;53.50;;;;;;6228295;23;20481;-83
2021/10/07 14:22:34;;;;;;;2.03;1.20;;;23.40;53.40;;;;;;6236950;23;20393;-83
2021/10/07 14:25:33;;;;;;;2.57;0.90;;;23.50;53.40;;;;;;6212784;23;20385;-83
2021/10/07 14:28:08;;;;;;;1.73;1.10;;;23.50;53.30;;;;;;6212957;23;20373;-83
2021/10/07 14:30:37;;;;;;;1.73;1.20;;;23.50;53.40;;;;;;6212861;23;20454;-83
2021/10/07 14:33:07;;;;;;;2.10;1.07;;;23.50;53.40;;;;;;6237806;23;20391;-83
2021/10/07 14:35:39;;;;;;;1.83;1.13;;;23.50;53.40;;;;;;6264286;23;20409;-83
2021/10/07 14:38:17;;;;;;;2.27;1.20;;;23.60;53.50;;;;;;6237906;23;20860;-83
2021/10/07 14:40:46;;;;;;;1.53;1.00;;;23.60;53.50;;;;;;6238129;23;20384;-83
2021/10/07 14:43:19;;;;;;;1.77;1.00;;;23.60;53.50;;;;;;6238581;23;20379;-83
2021/10/07 14:45:53;;;;;;;1.87;1.20;;;23.60;53.50;;;;;;6265987;23;20358;-83
2021/10/07 14:49:02;;;;;;;;;;;;;;;;;;;;;
2021/10/07 14:51:38;;;;;;;2.10;0.90;;;23.70;53.60;;;;;;6267899;23;20353;-82
2021/10/07 15:01:09;;;;;;;1.10;0.90;;;23.70;53.70;;;;;;6117077;23;20386;-83
2021/10/07 15:03:53;;;;;;;1.13;1.03;;;23.70;53.70;;;;;;6089439;23;20386;-82
2021/10/07 15:13:02;;;;;;;1.30;0.90;;;23.70;53.70;;;;;;6030350;23;20418;-82
2021/10/07 15:15:42;;;;;;;1.67;1.20;;;23.70;53.80;;;;;;6008672;23;20431;-82
2021/10/07 15:18:23;;;;;;;1.40;1.00;;;23.80;53.90;;;;;;6031910;23;20388;-82
2021/10/07 15:21:26;;;;;;;1.93;1.23;;;23.80;53.90;;;;;;5973098;23;20388;-83
2021/10/07 15:24:06;;;;;;;1.30;0.90;;;23.80;53.80;;;;;;6008989;23;20388;-83
2021/10/07 15:26:52;;;;;;;1.20;0.90;;;23.80;53.80;;;;;;6032762;23;20392;-82
2021/10/07 15:29:31;;;;;;;1.20;0.80;;;23.80;53.80;;;;;;6031735;23;20396;-82
2021/10/07 15:31:57;;;;;;;1.47;1.13;;;23.80;53.80;;;;;;6007981;23;20376;-82
2021/10/07 15:34:43;;;;;;;1.60;0.80;;;23.80;53.80;;;;;;6063213;23;20398;-82
2021/10/07 15:47:09;;;;;;;1.03;0.80;;;23.90;53.90;;;;;;6177340;23;20383;-82
2021/10/07 15:49:38;;;;;;;1.27;0.90;;;23.80;53.90;;;;;;6152682;23;20383;-82
2021/10/07 15:52:26;;;;;;;1.50;1.20;;;23.80;53.90;;;;;;6174205;23;20372;-83
2021/10/07 15:55:01;;;;;;;2.83;1.40;;;23.90;54.00;;;;;;6178024;23;20340;-83
2021/10/07 16:01:03;;;;;;;2.20;0.83;;;23.90;53.90;;;;;;6119336;23;20382;-83
2021/10/07 16:03:40;;;;;;;3.07;2.63;;;23.90;54.00;;;;;;6117652;23;20377;-81
2021/10/07 16:06:06;;;;;;;1.73;1.20;;;23.90;54.00;;;;;;6090117;23;20992;-83
2021/10/07 16:08:32;;;;;;;2.03;1.03;;;23.90;54.00;;;;;;6115601;23;20394;-83
2021/10/07 16:11:28;;;;;;;1.20;0.90;;;23.90;53.90;;;;;;6092694;23;20381;-82
2021/10/07 16:18:12;;;;;;;1.80;1.00;;;23.90;53.90;;;;;;6029256;23;20443;-83
2021/10/07 16:20:41;;;;;;;2.60;1.10;;;23.90;54.00;;;;;;6028629;23;20427;-83
2021/10/07 16:23:18;;;;;;;2.03;1.20;;;23.90;54.60;;;;;;6051933;23;20469;-83
2021/10/07 16:25:49;;;;;;;2.03;1.03;;;23.90;54.00;;;;;;6112269;23;20412;-81
2021/10/07 16:28:26;;;;;;;2.47;1.10;;;23.90;54.00;;;;;;6138111;23;20415;-81
2021/10/07 16:31:24;;;;;;;;;;;;;;;;;;;;;